Time;durP1;ratioP1;P1;durP2;ratioP2;P2;SDS_P1;SDS_P2;PMS_P1;PMS_P2;Temp;Humidity;BMP_temperature;BMP_pressure;BME280_temperature;BME280_humidity;BME280_pressure;Samples;Min_cycle;Max_cycle;Signal;HPM_P1;HPM_P2
2023/09/08 00:00:16;;;;;;;4.90;4.40;;;;;;;;;;495436;28;1340;-82
2023/09/08 00:00:33;;;;;;;5.65;4.65;;;;;;;;;;495084;28;1168;-81
2023/09/08 00:00:49;;;;;;;5.40;4.80;;;;;;;;;;497218;28;1340;-81
2023/09/08 00:01:05;;;;;;;5.40;4.60;;;;;;;;;;496226;28;1267;-81
2023/09/08 00:01:21;;;;;;;5.78;4.47;;;;;;;;;;498512;28;967;-81
2023/09/08 00:01:36;;;;;;;5.38;4.40;;;;;;;;;;497799;28;1221;-81
2023/09/08 00:01:52;;;;;;;5.17;4.40;;;;;;;;;;495693;28;1425;-82
2023/09/08 00:02:08;;;;;;;5.10;4.50;;;;;;;;;;497176;28;1121;-82
2023/09/08 00:02:26;;;;;;;5.10;4.60;;;;;;;;;;498800;28;1124;-81
2023/09/08 00:02:42;;;;;;;6.47;4.63;;;;;;;;;;495630;28;1235;-82
2023/09/08 00:02:58;;;;;;;7.35;4.63;;;;;;;;;;493450;28;1242;-81
2023/09/08 00:03:13;;;;;;;5.53;4.57;;;;;;;;;;493303;28;1116;-82
2023/09/08 00:03:29;;;;;;;5.07;4.57;;;;;;;;;;493643;28;1563;-81
2023/09/08 00:03:45;;;;;;;5.00;4.50;;;;;;;;;;493995;28;1190;-81
2023/09/08 00:04:01;;;;;;;5.63;4.60;;;;;;;;;;494138;28;1377;-80
2023/09/08 00:04:16;;;;;;;6.10;4.80;;;;;;;;;;493337;28;1275;-82
2023/09/08 00:04:35;;;;;;;5.63;4.80;;;;;;;;;;494768;28;1346;-81
2023/09/08 00:04:51;;;;;;;6.53;4.70;;;;;;;;;;492904;28;1315;-82
2023/09/08 00:05:06;;;;;;;5.97;4.70;;;;;;;;;;491491;28;1118;-81
2023/09/08 00:05:23;;;;;;;6.05;4.57;;;;;;;;;;493435;28;960;-82
2023/09/08 00:05:38;;;;;;;6.13;4.60;;;;;;;;;;494080;28;1336;-82
2023/09/08 00:05:55;;;;;;;5.88;4.78;;;;;;;;;;496611;28;1122;-82
2023/09/08 00:06:11;;;;;;;5.30;4.60;;;;;;;;;;497147;28;1069;-81
2023/09/08 00:06:27;;;;;;;6.20;4.57;;;;;;;;;;496507;28;1222;-81
2023/09/08 00:06:42;;;;;;;6.47;4.60;;;;;;;;;;494717;28;1212;-81
2023/09/08 00:06:58;;;;;;;6.10;4.60;;;;;;;;;;493480;28;1281;-81
2023/09/08 00:07:13;;;;;;;6.70;4.70;;;;;;;;;;494427;28;1156;-82
2023/09/08 00:07:29;;;;;;;6.32;4.60;;;;;;;;;;496536;28;1154;-81
2023/09/08 00:07:45;;;;;;;6.05;4.45;;;;;;;;;;494839;28;1397;-82
2023/09/08 00:08:00;;;;;;;6.30;4.50;;;;;;;;;;498711;28;1243;-82
2023/09/08 00:08:17;;;;;;;5.32;4.60;;;;;;;;;;499048;28;1475;-81
2023/09/08 00:08:32;;;;;;;5.45;4.80;;;;;;;;;;496549;28;1081;-83
2023/09/08 00:08:48;;;;;;;5.80;4.60;;;;;;;;;;497018;28;1352;-82
2023/09/08 00:09:04;;;;;;;5.35;4.55;;;;;;;;;;495343;28;1166;-81
2023/09/08 00:09:19;;;;;;;5.43;4.63;;;;;;;;;;495773;28;1366;-82
2023/09/08 00:09:35;;;;;;;5.80;4.53;;;;;;;;;;493842;28;1146;-82
2023/09/08 00:09:51;;;;;;;5.78;4.80;;;;;;;;;;495350;28;1164;-81
2023/09/08 00:10:07;;;;;;;5.17;4.63;;;;;;;;;;495867;28;1260;-82
2023/09/08 00:10:24;;;;;;;6.35;4.70;;;;;;;;;;493549;28;1309;-82
2023/09/08 00:10:39;;;;;;;6.18;4.65;;;;;;;;;;496373;28;1170;-82
2023/09/08 00:10:55;;;;;;;5.82;4.50;;;;;;;;;;496371;28;1213;-82
2023/09/08 00:11:10;;;;;;;5.90;4.57;;;;;;;;;;496022;28;1174;-82
2023/09/08 00:11:26;;;;;;;5.50;4.57;;;;;;;;;;494582;28;1125;-81
2023/09/08 00:11:42;;;;;;;5.50;4.63;;;;;;;;;;495362;28;1105;-81
2023/09/08 00:11:59;;;;;;;5.88;4.70;;;;;;;;;;494566;28;1053;-82
2023/09/08 00:12:15;;;;;;;7.10;5.00;;;;;;;;;;496783;28;996;-81
2023/09/08 00:12:31;;;;;;;6.55;4.90;;;;;;;;;;497945;28;1516;-82
2023/09/08 00:12:47;;;;;;;5.73;4.77;;;;;;;;;;497539;28;1126;-82
2023/09/08 00:13:03;;;;;;;5.75;4.72;;;;;;;;;;496069;28;1052;-81
2023/09/08 00:13:18;;;;;;;5.10;4.57;;;;;;;;;;493960;28;1406;-81
2023/09/08 00:13:34;;;;;;;5.32;4.72;;;;;;;;;;493635;28;1330;-82
2023/09/08 00:13:50;;;;;;;5.43;4.73;;;;;;;;;;493632;28;1072;-82
2023/09/08 00:14:05;;;;;;;5.72;4.65;;;;;;;;;;491728;28;1186;-81
2023/09/08 00:14:21;;;;;;;5.75;4.63;;;;;;;;;;492083;28;997;-81
2023/09/08 00:14:37;;;;;;;5.20;4.70;;;;;;;;;;492053;28;961;-81
2023/09/08 00:14:54;;;;;;;5.50;4.93;;;;;;;;;;493222;28;1108;-81
2023/09/08 00:15:10;;;;;;;6.03;5.00;;;;;;;;;;495167;28;1543;-81
2023/09/08 00:15:26;;;;;;;5.43;4.85;;;;;;;;;;496166;28;2011;-82
2023/09/08 00:15:42;;;;;;;5.23;4.73;;;;;;;;;;493589;28;1074;-82
2023/09/08 00:15:58;;;;;;;5.20;4.60;;;;;;;;;;492272;28;1193;-82
2023/09/08 00:16:13;;;;;;;5.10;4.50;;;;;;;;;;492274;28;1179;-76
2023/09/08 00:16:30;;;;;;;5.15;4.60;;;;;;;;;;488679;28;1233;-77
2023/09/08 00:16:46;;;;;;;6.50;4.95;;;;;;;;;;491116;28;1225;-76
2023/09/08 00:17:04;;;;;;;5.72;4.95;;;;;;;;;;493566;28;1339;-76
2023/09/08 00:17:20;;;;;;;5.07;4.60;;;;;;;;;;495427;28;917;-76
2023/09/08 00:17:38;;;;;;;5.00;4.50;;;;;;;;;;494168;28;1386;-76
2023/09/08 00:17:57;;;;;;;5.20;4.70;;;;;;;;;;495422;28;1142;-76
2023/09/08 00:18:12;;;;;;;5.18;4.60;;;;;;;;;;496184;28;1371;-76
2023/09/08 00:18:28;;;;;;;5.47;4.65;;;;;;;;;;495994;28;968;-76
2023/09/08 00:18:45;;;;;;;5.47;4.87;;;;;;;;;;496747;28;1162;-76
2023/09/08 00:19:01;;;;;;;5.47;4.82;;;;;;;;;;498007;28;1200;-77
2023/09/08 00:19:18;;;;;;;5.30;4.80;;;;;;;;;;499680;28;1444;-76
2023/09/08 00:19:34;;;;;;;6.90;4.60;;;;;;;;;;496883;28;1300;-75
2023/09/08 00:19:50;;;;;;;6.95;4.60;;;;;;;;;;496131;28;1191;-76
2023/09/08 00:20:09;;;;;;;5.20;4.70;;;;;;;;;;495549;28;930;-76
2023/09/08 00:20:25;;;;;;;5.22;4.57;;;;;;;;;;495000;28;1814;-76
2023/09/08 00:20:41;;;;;;;5.33;4.60;;;;;;;;;;493872;28;1234;-76
2023/09/08 00:20:57;;;;;;;5.15;4.50;;;;;;;;;;495359;28;1488;-77
2023/09/08 00:21:13;;;;;;;5.75;4.20;;;;;;;;;;497823;28;1123;-76
2023/09/08 00:21:28;;;;;;;5.67;4.17;;;;;;;;;;495436;28;1477;-76
2023/09/08 00:21:44;;;;;;;5.18;4.60;;;;;;;;;;495568;28;1110;-76
2023/09/08 00:22:00;;;;;;;6.00;4.60;;;;;;;;;;495014;28;1142;-76
2023/09/08 00:22:16;;;;;;;6.20;4.30;;;;;;;;;;495329;28;991;-76
2023/09/08 00:22:31;;;;;;;5.45;4.53;;;;;;;;;;496661;28;1141;-76
2023/09/08 00:22:47;;;;;;;5.18;4.68;;;;;;;;;;498400;28;1400;-76
2023/09/08 00:23:04;;;;;;;5.43;4.60;;;;;;;;;;501123;28;1247;-76
2023/09/08 00:23:19;;;;;;;5.30;4.55;;;;;;;;;;500123;28;1100;-76
2023/09/08 00:23:35;;;;;;;5.68;4.60;;;;;;;;;;499680;28;1436;-76
2023/09/08 00:23:52;;;;;;;6.47;5.00;;;;;;;;;;499433;28;1446;-76
2023/09/08 00:24:07;;;;;;;6.38;5.07;;;;;;;;;;499239;28;1444;-76
2023/09/08 00:24:24;;;;;;;6.53;5.00;;;;;;;;;;499320;28;1309;-76
2023/09/08 00:24:40;;;;;;;6.32;4.65;;;;;;;;;;498884;28;964;-76
2023/09/08 00:24:56;;;;;;;5.95;4.70;;;;;;;;;;498839;28;1130;-76
2023/09/08 00:25:11;;;;;;;6.07;4.93;;;;;;;;;;496512;28;1246;-76
2023/09/08 00:25:28;;;;;;;6.45;4.90;;;;;;;;;;498143;28;1220;-76
2023/09/08 00:25:44;;;;;;;6.20;4.88;;;;;;;;;;496846;28;1095;-76
2023/09/08 00:25:59;;;;;;;5.60;4.70;;;;;;;;;;494855;28;1096;-76
2023/09/08 00:26:15;;;;;;;6.65;4.75;;;;;;;;;;496753;28;1174;-76
2023/09/08 00:26:32;;;;;;;6.50;4.88;;;;;;;;;;499173;28;1313;-76
2023/09/08 00:26:49;;;;;;;5.28;4.68;;;;;;;;;;498669;28;1347;-76
2023/09/08 00:27:05;;;;;;;5.10;4.60;;;;;;;;;;498709;28;1175;-76
2023/09/08 00:27:21;;;;;;;5.30;4.60;;;;;;;;;;498008;28;1114;-76
2023/09/08 00:27:37;;;;;;;5.38;4.75;;;;;;;;;;499962;28;1164;-76
2023/09/08 00:27:52;;;;;;;5.43;4.75;;;;;;;;;;499453;28;1333;-76
2023/09/08 00:28:09;;;;;;;5.78;4.50;;;;;;;;;;501672;28;997;-76
2023/09/08 00:28:24;;;;;;;5.32;4.50;;;;;;;;;;499878;28;1289;-76
2023/09/08 00:28:40;;;;;;;5.30;4.63;;;;;;;;;;502224;28;1023;-76
2023/09/08 00:28:55;;;;;;;6.55;4.88;;;;;;;;;;501913;28;1492;-76
2023/09/08 00:29:11;;;;;;;7.03;5.05;;;;;;;;;;499882;28;1132;-76
2023/09/08 00:29:27;;;;;;;6.73;4.90;;;;;;;;;;496442;28;1290;-76
2023/09/08 00:29:42;;;;;;;6.82;4.70;;;;;;;;;;497831;28;1292;-76
2023/09/08 00:29:58;;;;;;;6.93;4.67;;;;;;;;;;499394;28;1073;-76
2023/09/08 00:30:14;;;;;;;6.35;4.63;;;;;;;;;;500098;28;1252;-76
2023/09/08 00:30:30;;;;;;;5.70;4.80;;;;;;;;;;501408;28;1127;-76
2023/09/08 00:30:45;;;;;;;5.35;4.55;;;;;;;;;;499392;28;1359;-76
2023/09/08 00:31:01;;;;;;;5.80;4.70;;;;;;;;;;501862;28;1277;-76
2023/09/08 00:31:17;;;;;;;5.57;4.80;;;;;;;;;;499148;28;1149;-76
2023/09/08 00:31:34;;;;;;;5.25;4.75;;;;;;;;;;497959;28;1197;-75
2023/09/08 00:31:49;;;;;;;5.80;4.75;;;;;;;;;;497664;28;1278;-76
2023/09/08 00:32:05;;;;;;;6.38;4.80;;;;;;;;;;495030;28;1128;-75
2023/09/08 00:32:21;;;;;;;5.78;4.82;;;;;;;;;;496200;28;1394;-77
2023/09/08 00:32:37;;;;;;;6.30;4.60;;;;;;;;;;496278;28;1124;-76
2023/09/08 00:32:52;;;;;;;5.75;4.55;;;;;;;;;;497810;28;1319;-76
2023/09/08 00:33:08;;;;;;;5.13;4.60;;;;;;;;;;499714;28;1293;-76
2023/09/08 00:33:24;;;;;;;6.13;4.60;;;;;;;;;;496349;28;1338;-76
2023/09/08 00:33:41;;;;;;;5.50;4.57;;;;;;;;;;498031;28;1059;-76
2023/09/08 00:33:57;;;;;;;5.30;4.80;;;;;;;;;;499298;28;913;-77
2023/09/08 00:34:13;;;;;;;5.20;4.70;;;;;;;;;;500865;28;1331;-76
2023/09/08 00:34:29;;;;;;;6.60;4.80;;;;;;;;;;498061;28;1153;-76
2023/09/08 00:34:44;;;;;;;6.35;4.75;;;;;;;;;;496866;28;1270;-76
2023/09/08 00:35:00;;;;;;;6.15;4.78;;;;;;;;;;496446;28;1159;-76
2023/09/08 00:35:17;;;;;;;6.00;4.90;;;;;;;;;;496455;28;927;-76
2023/09/08 00:35:33;;;;;;;5.30;4.70;;;;;;;;;;495024;28;1959;-76
2023/09/08 00:35:49;;;;;;;6.40;4.70;;;;;;;;;;494889;28;1146;-76
2023/09/08 00:36:05;;;;;;;7.43;4.88;;;;;;;;;;495115;28;923;-76
2023/09/08 00:36:22;;;;;;;5.82;4.80;;;;;;;;;;496155;28;1232;-76
2023/09/08 00:36:38;;;;;;;6.25;4.70;;;;;;;;;;498870;28;1339;-76
2023/09/08 00:36:53;;;;;;;6.82;4.70;;;;;;;;;;496384;28;1226;-76
2023/09/08 00:37:09;;;;;;;6.10;4.90;;;;;;;;;;498126;28;1224;-76
2023/09/08 00:37:25;;;;;;;6.13;4.90;;;;;;;;;;494835;28;1124;-77
2023/09/08 00:37:40;;;;;;;6.55;4.93;;;;;;;;;;497470;28;1335;-76
2023/09/08 00:37:56;;;;;;;6.53;5.00;;;;;;;;;;499854;28;1251;-76
2023/09/08 00:38:13;;;;;;;6.63;4.80;;;;;;;;;;499942;28;1185;-76
2023/09/08 00:38:29;;;;;;;6.03;4.88;;;;;;;;;;500695;28;1407;-76
2023/09/08 00:38:45;;;;;;;6.13;5.05;;;;;;;;;;500955;28;1436;-76
2023/09/08 00:39:04;;;;;;;5.78;4.95;;;;;;;;;;499462;28;1164;-76
2023/09/08 00:39:20;;;;;;;5.53;4.85;;;;;;;;;;503623;28;1088;-76
2023/09/08 00:39:37;;;;;;;5.35;4.72;;;;;;;;;;500387;28;1328;-76
2023/09/08 00:39:53;;;;;;;5.90;5.07;;;;;;;;;;499839;28;1376;-76
2023/09/08 00:40:09;;;;;;;7.15;5.30;;;;;;;;;;496054;28;1424;-76
2023/09/08 00:40:29;;;;;;;6.72;5.20;;;;;;;;;;497218;28;1073;-76
2023/09/08 00:40:45;;;;;;;6.93;5.05;;;;;;;;;;497948;28;1106;-76
2023/09/08 00:41:01;;;;;;;6.00;4.90;;;;;;;;;;499981;28;1307;-76
2023/09/08 00:41:18;;;;;;;6.35;4.93;;;;;;;;;;499082;28;1108;-76
2023/09/08 00:41:34;;;;;;;6.63;4.97;;;;;;;;;;501437;28;1124;-76
2023/09/08 00:41:51;;;;;;;5.38;4.78;;;;;;;;;;500071;28;1246;-76
2023/09/08 00:42:07;;;;;;;6.30;4.88;;;;;;;;;;498233;28;1167;-76
2023/09/08 00:42:22;;;;;;;7.40;5.10;;;;;;;;;;497667;28;1310;-76
2023/09/08 00:42:38;;;;;;;6.97;4.90;;;;;;;;;;497067;28;1201;-76
2023/09/08 00:42:55;;;;;;;6.80;5.00;;;;;;;;;;499449;28;1477;-76
2023/09/08 00:43:11;;;;;;;6.15;5.07;;;;;;;;;;499169;28;1052;-76
2023/09/08 00:43:26;;;;;;;5.97;4.97;;;;;;;;;;500587;28;1492;-76
2023/09/08 00:43:42;;;;;;;6.30;4.90;;;;;;;;;;497200;28;1144;-76
2023/09/08 00:43:58;;;;;;;6.07;4.88;;;;;;;;;;501531;28;1133;-76
2023/09/08 00:44:14;;;;;;;5.68;4.75;;;;;;;;;;498949;28;1135;-76
2023/09/08 00:44:29;;;;;;;5.10;4.70;;;;;;;;;;495913;28;1638;-76
2023/09/08 00:44:46;;;;;;;5.50;5.00;;;;;;;;;;493808;28;1216;-76
2023/09/08 00:45:02;;;;;;;6.13;5.22;;;;;;;;;;495398;28;1390;-76
2023/09/08 00:45:18;;;;;;;6.38;5.20;;;;;;;;;;496503;28;1214;-76
2023/09/08 00:45:40;;;;;;;5.80;5.10;;;;;;;;;;496873;28;1339;-76
2023/09/08 00:45:58;;;;;;;5.50;4.82;;;;;;;;;;495217;28;1077;-76
2023/09/08 00:46:14;;;;;;;5.60;4.90;;;;;;;;;;497917;28;943;-76
2023/09/08 00:46:33;;;;;;;5.40;4.80;;;;;;;;;;494518;28;1273;-76
2023/09/08 00:46:50;;;;;;;5.88;4.78;;;;;;;;;;494332;28;1352;-76
2023/09/08 00:47:06;;;;;;;6.47;5.03;;;;;;;;;;492567;28;1031;-76
2023/09/08 00:47:21;;;;;;;5.57;4.80;;;;;;;;;;496959;28;1092;-76
2023/09/08 00:47:37;;;;;;;6.15;4.95;;;;;;;;;;497955;28;1067;-76
2023/09/08 00:47:52;;;;;;;7.35;4.80;;;;;;;;;;499676;28;1208;-76
2023/09/08 00:48:09;;;;;;;6.47;4.80;;;;;;;;;;498686;28;1163;-76
2023/09/08 00:48:25;;;;;;;6.45;4.82;;;;;;;;;;498062;28;1190;-76
2023/09/08 00:48:41;;;;;;;6.30;4.78;;;;;;;;;;500517;28;1239;-76
2023/09/08 00:48:57;;;;;;;6.32;4.90;;;;;;;;;;499495;28;1089;-76
2023/09/08 00:49:13;;;;;;;6.45;5.10;;;;;;;;;;497272;28;1362;-76
2023/09/08 00:49:29;;;;;;;5.30;4.80;;;;;;;;;;497549;28;1436;-76
2023/09/08 00:49:49;;;;;;;5.00;4.50;;;;;;;;;;497829;28;1221;-76
2023/09/08 00:50:05;;;;;;;5.30;4.68;;;;;;;;;;495096;28;1270;-76
2023/09/08 00:50:21;;;;;;;5.47;4.88;;;;;;;;;;495970;28;1083;-77
2023/09/08 00:50:37;;;;;;;5.80;4.65;;;;;;;;;;495457;28;1191;-77
2023/09/08 00:50:53;;;;;;;6.22;4.80;;;;;;;;;;497878;28;1081;-76
2023/09/08 00:51:09;;;;;;;5.70;5.10;;;;;;;;;;498539;28;1193;-76
2023/09/08 00:51:25;;;;;;;5.82;5.22;;;;;;;;;;500581;28;1065;-76
2023/09/08 00:51:42;;;;;;;6.80;4.97;;;;;;;;;;497286;28;1226;-76
2023/09/08 00:52:00;;;;;;;5.65;4.63;;;;;;;;;;495530;28;1257;-76
2023/09/08 00:52:16;;;;;;;5.55;4.70;;;;;;;;;;495396;28;993;-76
2023/09/08 00:52:33;;;;;;;5.65;4.90;;;;;;;;;;496528;28;1294;-76
2023/09/08 00:52:49;;;;;;;5.30;4.80;;;;;;;;;;494058;28;1189;-76
2023/09/08 00:53:06;;;;;;;5.30;4.80;;;;;;;;;;495232;28;1080;-76
2023/09/08 00:53:23;;;;;;;5.32;4.82;;;;;;;;;;496539;28;1155;-76
2023/09/08 00:53:39;;;;;;;5.78;4.85;;;;;;;;;;497934;28;1461;-76
2023/09/08 00:53:55;;;;;;;6.60;4.97;;;;;;;;;;501252;28;1070;-76
2023/09/08 00:54:11;;;;;;;6.63;5.10;;;;;;;;;;499925;28;1145;-76
2023/09/08 00:54:27;;;;;;;6.13;5.03;;;;;;;;;;499870;28;1095;-76
2023/09/08 00:54:43;;;;;;;5.90;5.00;;;;;;;;;;499142;28;2203;-76
2023/09/08 00:54:59;;;;;;;7.18;4.95;;;;;;;;;;500195;28;1289;-76
2023/09/08 00:55:15;;;;;;;6.82;4.75;;;;;;;;;;498223;28;1157;-76
2023/09/08 00:55:31;;;;;;;6.70;4.83;;;;;;;;;;497667;28;1950;-76
2023/09/08 00:55:48;;;;;;;6.55;4.80;;;;;;;;;;496326;28;1092;-76
2023/09/08 00:56:04;;;;;;;5.32;4.47;;;;;;;;;;498850;28;1522;-77
2023/09/08 00:56:20;;;;;;;5.82;4.65;;;;;;;;;;498536;28;1418;-76
2023/09/08 00:56:39;;;;;;;5.68;4.93;;;;;;;;;;498037;28;1025;-76
2023/09/08 00:56:58;;;;;;;6.05;5.15;;;;;;;;;;496404;28;1241;-76
2023/09/08 00:57:13;;;;;;;6.55;5.15;;;;;;;;;;492505;28;982;-76
2023/09/08 00:57:29;;;;;;;6.60;5.10;;;;;;;;;;496794;28;1136;-76
2023/09/08 00:57:45;;;;;;;6.13;4.95;;;;;;;;;;495179;28;1251;-76
2023/09/08 00:58:03;;;;;;;5.93;4.90;;;;;;;;;;495243;28;1336;-76
2023/09/08 00:58:18;;;;;;;6.65;4.88;;;;;;;;;;495909;28;1390;-76
2023/09/08 00:58:35;;;;;;;6.60;4.70;;;;;;;;;;498423;28;1165;-76
2023/09/08 00:58:51;;;;;;;6.15;4.85;;;;;;;;;;498185;28;1259;-76
2023/09/08 00:59:07;;;;;;;6.07;5.20;;;;;;;;;;498621;28;1172;-76
2023/09/08 00:59:24;;;;;;;6.10;5.10;;;;;;;;;;499948;28;1153;-77
2023/09/08 00:59:40;;;;;;;6.10;4.85;;;;;;;;;;495660;28;1141;-76
2023/09/08 00:59:56;;;;;;;5.50;4.70;;;;;;;;;;496531;28;1262;-77
2023/09/08 01:00:12;;;;;;;5.28;4.70;;;;;;;;;;494540;28;1084;-76
2023/09/08 01:00:28;;;;;;;5.47;4.93;;;;;;;;;;496743;28;1568;-76
2023/09/08 01:00:44;;;;;;;7.43;5.07;;;;;;;;;;498849;28;1231;-76
2023/09/08 01:01:01;;;;;;;6.70;4.85;;;;;;;;;;497866;28;1148;-77
2023/09/08 01:01:17;;;;;;;5.85;4.80;;;;;;;;;;499295;28;1372;-76
2023/09/08 01:01:34;;;;;;;6.80;4.90;;;;;;;;;;487859;28;1448;-76
2023/09/08 01:01:51;;;;;;;6.87;4.90;;;;;;;;;;491389;28;1434;-76
2023/09/08 01:02:10;;;;;;;7.40;4.85;;;;;;;;;;489029;28;1292;-76
2023/09/08 01:02:25;;;;;;;6.90;4.72;;;;;;;;;;488085;28;1318;-76
2023/09/08 01:02:43;;;;;;;5.40;4.80;;;;;;;;;;491115;28;1134;-76
2023/09/08 01:02:59;;;;;;;5.65;4.75;;;;;;;;;;490712;28;1055;-76
2023/09/08 01:03:15;;;;;;;5.90;4.70;;;;;;;;;;493386;28;1350;-76
2023/09/08 01:03:31;;;;;;;5.93;4.97;;;;;;;;;;492292;28;1143;-76
2023/09/08 01:03:46;;;;;;;5.55;4.82;;;;;;;;;;491533;28;1118;-76
2023/09/08 01:04:02;;;;;;;5.57;4.80;;;;;;;;;;493768;28;1292;-76
2023/09/08 01:04:18;;;;;;;6.60;5.05;;;;;;;;;;492632;28;1436;-75
2023/09/08 01:04:33;;;;;;;6.43;4.95;;;;;;;;;;492353;28;1137;-76
2023/09/08 01:04:50;;;;;;;5.45;4.85;;;;;;;;;;494136;28;1121;-77
2023/09/08 01:05:08;;;;;;;6.28;5.03;;;;;;;;;;493433;28;1085;-76
2023/09/08 01:05:24;;;;;;;5.97;4.80;;;;;;;;;;491860;28;1228;-77
2023/09/08 01:05:39;;;;;;;5.28;4.78;;;;;;;;;;493302;28;1181;-76
2023/09/08 01:05:55;;;;;;;5.35;4.85;;;;;;;;;;490908;28;1120;-75
2023/09/08 01:06:13;;;;;;;5.88;4.93;;;;;;;;;;493389;28;1352;-76
2023/09/08 01:06:29;;;;;;;6.88;5.20;;;;;;;;;;493955;28;1293;-76
2023/09/08 01:06:46;;;;;;;6.25;4.95;;;;;;;;;;494313;28;1466;-76
2023/09/08 01:07:03;;;;;;;6.20;4.65;;;;;;;;;;495318;28;1163;-76
2023/09/08 01:07:20;;;;;;;5.38;4.57;;;;;;;;;;499068;28;1362;-76
2023/09/08 01:07:35;;;;;;;6.75;4.80;;;;;;;;;;495944;28;1290;-76
2023/09/08 01:07:53;;;;;;;6.53;5.10;;;;;;;;;;498683;28;1201;-76
2023/09/08 01:08:09;;;;;;;5.72;4.93;;;;;;;;;;496161;28;1373;-76
2023/09/08 01:08:27;;;;;;;6.75;5.18;;;;;;;;;;493739;28;1169;-76
2023/09/08 01:08:43;;;;;;;7.30;5.20;;;;;;;;;;495368;28;1516;-76
2023/09/08 01:08:59;;;;;;;6.90;5.10;;;;;;;;;;494413;28;1136;-76
2023/09/08 01:09:15;;;;;;;6.90;5.30;;;;;;;;;;494656;28;1184;-76
2023/09/08 01:09:31;;;;;;;6.27;5.13;;;;;;;;;;496340;28;1135;-76
2023/09/08 01:09:50;;;;;;;6.45;5.22;;;;;;;;;;495531;28;1107;-76
2023/09/08 01:10:06;;;;;;;6.05;5.18;;;;;;;;;;496507;28;1401;-76
2023/09/08 01:10:23;;;;;;;5.32;4.82;;;;;;;;;;495678;28;1279;-76
2023/09/08 01:10:41;;;;;;;5.47;4.95;;;;;;;;;;497046;28;1356;-76
2023/09/08 01:10:58;;;;;;;5.75;4.93;;;;;;;;;;497348;28;1465;-76
2023/09/08 01:11:14;;;;;;;8.18;5.00;;;;;;;;;;496438;28;1454;-76
2023/09/08 01:11:30;;;;;;;7.30;4.90;;;;;;;;;;494047;28;1375;-77
2023/09/08 01:11:46;;;;;;;5.55;5.03;;;;;;;;;;495753;28;1378;-76
2023/09/08 01:12:06;;;;;;;5.70;5.10;;;;;;;;;;497947;28;1244;-76
2023/09/08 01:12:24;;;;;;;5.75;5.10;;;;;;;;;;497575;28;1871;-76
2023/09/08 01:12:41;;;;;;;5.95;5.07;;;;;;;;;;497126;28;1330;-76
2023/09/08 01:12:57;;;;;;;5.80;4.75;;;;;;;;;;497491;28;1636;-76
2023/09/08 01:13:12;;;;;;;5.10;4.60;;;;;;;;;;497366;28;1351;-75
2023/09/08 01:13:28;;;;;;;5.20;4.70;;;;;;;;;;495716;28;1313;-76
2023/09/08 01:13:43;;;;;;;5.78;4.90;;;;;;;;;;498391;28;1047;-76
2023/09/08 01:13:59;;;;;;;5.53;4.77;;;;;;;;;;497615;28;1114;-76
2023/09/08 01:14:18;;;;;;;5.32;4.78;;;;;;;;;;497816;28;1531;-76
2023/09/08 01:14:34;;;;;;;5.40;4.90;;;;;;;;;;497777;28;966;-76
2023/09/08 01:14:49;;;;;;;5.50;5.00;;;;;;;;;;497009;28;1166;-76
2023/09/08 01:15:06;;;;;;;6.73;4.90;;;;;;;;;;495676;28;1325;-76
2023/09/08 01:15:21;;;;;;;7.57;4.80;;;;;;;;;;499660;28;1253;-76
2023/09/08 01:15:37;;;;;;;6.40;4.83;;;;;;;;;;496387;28;2734;-76
2023/09/08 01:15:53;;;;;;;5.70;4.80;;;;;;;;;;495799;28;1128;-76
2023/09/08 01:16:10;;;;;;;5.75;4.85;;;;;;;;;;494388;28;1541;-76
2023/09/08 01:16:26;;;;;;;6.03;4.90;;;;;;;;;;494819;28;1482;-76
2023/09/08 01:16:42;;;;;;;5.43;4.65;;;;;;;;;;495900;28;1121;-76
2023/09/08 01:16:57;;;;;;;5.22;4.72;;;;;;;;;;496128;28;1095;-76
2023/09/08 01:17:13;;;;;;;5.60;5.00;;;;;;;;;;495644;28;1236;-76
2023/09/08 01:17:30;;;;;;;6.18;4.93;;;;;;;;;;494352;28;1215;-76
2023/09/08 01:17:46;;;;;;;5.63;4.97;;;;;;;;;;493029;28;1122;-75
2023/09/08 01:18:01;;;;;;;5.70;5.10;;;;;;;;;;491113;28;1357;-76
2023/09/08 01:18:17;;;;;;;6.47;5.23;;;;;;;;;;490886;28;1268;-76
2023/09/08 01:18:33;;;;;;;6.47;5.13;;;;;;;;;;491216;28;1228;-76
2023/09/08 01:18:50;;;;;;;7.07;5.20;;;;;;;;;;495070;28;1407;-76
2023/09/08 01:19:10;;;;;;;6.68;5.00;;;;;;;;;;495071;28;1339;-76
2023/09/08 01:19:26;;;;;;;5.95;5.00;;;;;;;;;;495505;28;1322;-76
2023/09/08 01:19:45;;;;;;;7.22;5.00;;;;;;;;;;495140;28;1281;-76
2023/09/08 01:20:22;;;;;;;6.53;4.65;;;;;;;;;;498283;28;1146;-76
2023/09/08 01:21:08;;;;;;;6.03;5.15;;;;;;;;;;500060;28;1414;-76
2023/09/08 01:21:40;;;;;;;5.78;5.00;;;;;;;;;;495370;28;1215;-76
2023/09/08 01:22:20;;;;;;;6.13;5.20;;;;;;;;;;497626;28;1168;-76
2023/09/08 01:23:00;;;;;;;5.63;4.88;;;;;;;;;;500911;28;1281;-76
2023/09/08 01:23:33;;;;;;;5.65;5.10;;;;;;;;;;498743;28;1326;-76
2023/09/08 01:24:17;;;;;;;5.32;4.72;;;;;;;;;;496632;28;1453;-76
2023/09/08 01:24:56;;;;;;;6.07;5.20;;;;;;;;;;497390;28;1238;-76
2023/09/08 01:25:16;;;;;;;7.18;5.00;;;;;;;;;;489021;28;1860;-76
2023/09/08 01:25:35;;;;;;;5.85;4.90;;;;;;;;;;495329;28;1065;-76
2023/09/08 01:26:06;;;;;;;5.20;4.70;;;;;;;;;;495015;28;1253;-76
2023/09/08 01:26:25;;;;;;;5.75;5.18;;;;;;;;;;492261;28;1215;-82
2023/09/08 01:26:42;;;;;;;5.30;4.80;;;;;;;;;;492702;28;1284;-81
2023/09/08 01:26:58;;;;;;;5.55;4.70;;;;;;;;;;490002;28;1508;-82
2023/09/08 01:27:15;;;;;;;5.45;4.90;;;;;;;;;;494125;28;1483;-82
2023/09/08 01:27:35;;;;;;;5.68;5.10;;;;;;;;;;496915;28;1114;-82
2023/09/08 01:27:52;;;;;;;6.32;5.22;;;;;;;;;;492351;28;1224;-82
2023/09/08 01:28:10;;;;;;;6.57;5.18;;;;;;;;;;492994;28;1341;-81
2023/09/08 01:28:26;;;;;;;6.32;5.03;;;;;;;;;;496460;28;1273;-83
2023/09/08 01:28:43;;;;;;;5.53;4.90;;;;;;;;;;492999;28;1438;-81
2023/09/08 01:29:00;;;;;;;5.55;4.95;;;;;;;;;;492096;28;1128;-82
2023/09/08 01:29:19;;;;;;;5.55;5.00;;;;;;;;;;482649;28;1158;-82
2023/09/08 01:29:38;;;;;;;6.95;4.82;;;;;;;;;;484654;29;963;-81
2023/09/08 01:29:54;;;;;;;7.55;5.07;;;;;;;;;;488392;28;1358;-81
2023/09/08 01:30:10;;;;;;;7.05;5.30;;;;;;;;;;487442;28;1510;-82
2023/09/08 01:30:28;;;;;;;6.05;5.32;;;;;;;;;;487374;28;1192;-82
2023/09/08 01:30:45;;;;;;;5.65;5.00;;;;;;;;;;487425;29;1344;-82
2023/09/08 01:31:01;;;;;;;6.07;5.00;;;;;;;;;;487527;29;1201;-83
2023/09/08 01:31:17;;;;;;;6.97;5.10;;;;;;;;;;490766;28;1226;-82
2023/09/08 01:31:33;;;;;;;8.07;5.32;;;;;;;;;;488324;28;1122;-82
2023/09/08 01:31:50;;;;;;;7.60;5.22;;;;;;;;;;490041;28;1128;-82
2023/09/08 01:32:06;;;;;;;6.40;4.90;;;;;;;;;;490847;28;1322;-81
2023/09/08 01:32:22;;;;;;;5.85;4.90;;;;;;;;;;486035;29;1185;-81
2023/09/08 01:32:37;;;;;;;5.88;4.88;;;;;;;;;;485514;28;1321;-82
2023/09/08 01:32:54;;;;;;;5.80;5.17;;;;;;;;;;487410;28;1030;-82
2023/09/08 01:33:09;;;;;;;6.05;5.20;;;;;;;;;;489506;28;1134;-82
2023/09/08 01:33:26;;;;;;;7.60;5.30;;;;;;;;;;486392;28;1192;-82
2023/09/08 01:33:42;;;;;;;7.20;5.32;;;;;;;;;;490254;28;1283;-82
2023/09/08 01:34:01;;;;;;;5.95;5.30;;;;;;;;;;489465;28;1062;-82
2023/09/08 01:34:17;;;;;;;5.60;5.00;;;;;;;;;;490917;28;1247;-82
2023/09/08 01:34:33;;;;;;;6.23;4.93;;;;;;;;;;490635;28;1140;-81
2023/09/08 01:34:48;;;;;;;6.20;5.00;;;;;;;;;;483845;28;1243;-83
2023/09/08 01:35:05;;;;;;;5.43;4.93;;;;;;;;;;488035;29;1182;-82
2023/09/08 01:35:21;;;;;;;6.03;5.03;;;;;;;;;;486900;28;1398;-82
2023/09/08 01:35:37;;;;;;;6.57;5.10;;;;;;;;;;488284;28;2000;-82
2023/09/08 01:35:52;;;;;;;6.73;5.17;;;;;;;;;;487495;29;1331;-82
2023/09/08 01:36:08;;;;;;;6.60;5.10;;;;;;;;;;487384;29;1268;-82
2023/09/08 01:36:24;;;;;;;5.63;5.00;;;;;;;;;;493779;28;1262;-82
2023/09/08 01:36:39;;;;;;;5.80;4.90;;;;;;;;;;489132;28;1412;-81
2023/09/08 01:36:56;;;;;;;7.53;4.90;;;;;;;;;;489721;28;1307;-82
2023/09/08 01:37:12;;;;;;;6.40;4.93;;;;;;;;;;492017;28;1442;-82
2023/09/08 01:37:28;;;;;;;5.80;4.80;;;;;;;;;;487928;28;1228;-81
2023/09/08 01:37:48;;;;;;;6.03;4.90;;;;;;;;;;486916;29;1231;-81
2023/09/08 01:38:04;;;;;;;5.20;4.70;;;;;;;;;;488038;29;1094;-82
2023/09/08 01:38:21;;;;;;;5.40;4.90;;;;;;;;;;487802;29;1255;-81
2023/09/08 01:38:37;;;;;;;5.82;4.82;;;;;;;;;;486813;28;1087;-82
2023/09/08 01:38:52;;;;;;;6.43;4.82;;;;;;;;;;488386;28;1172;-82
2023/09/08 01:39:09;;;;;;;5.67;5.07;;;;;;;;;;485775;28;1123;-83
2023/09/08 01:39:24;;;;;;;5.53;5.00;;;;;;;;;;485065;28;1181;-81
2023/09/08 01:39:41;;;;;;;5.50;4.90;;;;;;;;;;482925;28;1188;-82
2023/09/08 01:39:56;;;;;;;5.80;5.18;;;;;;;;;;484528;29;1155;-82
2023/09/08 01:40:13;;;;;;;5.60;5.00;;;;;;;;;;482388;28;1375;-81
2023/09/08 01:40:30;;;;;;;5.72;5.00;;;;;;;;;;483771;28;1343;-82
2023/09/08 01:40:46;;;;;;;6.07;5.25;;;;;;;;;;488655;28;1281;-82
2023/09/08 01:41:03;;;;;;;6.78;5.25;;;;;;;;;;490796;28;1190;-82
2023/09/08 01:41:18;;;;;;;6.85;5.32;;;;;;;;;;493368;28;1384;-82
2023/09/08 01:41:35;;;;;;;5.80;5.20;;;;;;;;;;495247;28;1275;-81
2023/09/08 01:41:51;;;;;;;5.40;4.90;;;;;;;;;;493746;28;1243;-82
2023/09/08 01:42:06;;;;;;;5.20;4.70;;;;;;;;;;492263;28;1168;-82
2023/09/08 01:42:23;;;;;;;5.50;4.75;;;;;;;;;;493508;28;1193;-82
2023/09/08 01:42:39;;;;;;;6.50;4.95;;;;;;;;;;484877;28;1212;-82
2023/09/08 01:42:55;;;;;;;6.35;5.10;;;;;;;;;;482675;28;1218;-82
2023/09/08 01:43:13;;;;;;;6.20;4.87;;;;;;;;;;487309;28;1431;-82
2023/09/08 01:43:28;;;;;;;7.15;4.97;;;;;;;;;;485558;29;1421;-82
2023/09/08 01:43:44;;;;;;;6.23;5.10;;;;;;;;;;487080;29;1383;-82
2023/09/08 01:44:00;;;;;;;6.07;5.25;;;;;;;;;;487015;28;1318;-81
2023/09/08 01:44:16;;;;;;;6.00;5.05;;;;;;;;;;491395;28;1340;-82
2023/09/08 01:44:31;;;;;;;5.60;5.00;;;;;;;;;;489797;28;1152;-81